createdAt,value
2022-10-21T00:00:52.557Z,8.13
2022-10-21T00:03:20.838Z,8.67
2022-10-21T00:05:48.759Z,8.47
2022-10-21T00:08:19.666Z,8.10
2022-10-21T00:10:47.503Z,7.90
2022-10-21T00:13:15.832Z,7.30
2022-10-21T00:15:43.687Z,7.33
2022-10-21T00:18:12.055Z,8.00
2022-10-21T00:20:41.191Z,8.30
2022-10-21T00:23:09.316Z,7.90
2022-10-21T00:25:39.109Z,7.83
2022-10-21T00:28:07.218Z,8.17
2022-10-21T00:30:34.999Z,7.70
2022-10-21T00:33:03.378Z,7.47
2022-10-21T00:35:34.448Z,8.03
2022-10-21T00:38:02.709Z,7.60
2022-10-21T00:40:30.507Z,7.60
2022-10-21T00:42:59.639Z,7.30
2022-10-21T00:45:28.020Z,7.03
2022-10-21T00:47:58.654Z,7.33
2022-10-21T00:50:30.327Z,7.33
2022-10-21T00:52:58.085Z,7.20
2022-10-21T00:55:25.964Z,6.93
2022-10-21T00:57:53.740Z,6.53
2022-10-21T01:00:22.880Z,6.67
2022-10-21T01:02:50.639Z,6.63
2022-10-21T01:05:18.524Z,7.30
2022-10-21T01:07:48.146Z,7.17
2022-10-21T01:10:16.310Z,6.90
2022-10-21T01:12:50.098Z,6.50
2022-10-21T01:15:19.588Z,6.50
2022-10-21T01:17:52.084Z,6.70
2022-10-21T01:20:50.556Z,6.33
2022-10-21T01:23:43.049Z,6.77
2022-10-21T01:26:21.419Z,6.30
2022-10-21T01:28:54.469Z,6.00
2022-10-21T01:31:25.770Z,6.80
2022-10-21T01:33:54.875Z,6.67
2022-10-21T01:36:28.971Z,6.60
2022-10-21T01:39:08.381Z,5.93
2022-10-21T01:41:37.554Z,6.80
2022-10-21T01:44:07.154Z,6.50
2022-10-21T01:46:39.016Z,6.30
2022-10-21T01:49:11.259Z,6.70
2022-10-21T01:51:39.080Z,6.03
2022-10-21T01:54:08.689Z,6.43
2022-10-21T01:56:36.364Z,6.13
2022-10-21T01:59:04.411Z,6.60
2022-10-21T02:01:32.312Z,5.93
2022-10-21T02:04:02.247Z,5.60
2022-10-21T02:06:30.403Z,5.77
2022-10-21T02:08:58.214Z,6.43
2022-10-21T02:11:26.781Z,6.10
2022-10-21T02:13:57.087Z,5.70
2022-10-21T02:16:26.929Z,6.10
2022-10-21T02:18:55.623Z,5.80
2022-10-21T02:21:25.712Z,5.80
2022-10-21T02:23:54.526Z,6.43
2022-10-21T02:26:22.657Z,5.67
2022-10-21T02:28:50.629Z,5.73
2022-10-21T02:31:26.806Z,5.77
2022-10-21T02:34:00.387Z,5.80
2022-10-21T02:36:35.449Z,5.80
2022-10-21T02:39:04.947Z,5.77
2022-10-21T02:41:33.332Z,5.67
2022-10-21T02:44:02.066Z,5.67
2022-10-21T02:46:36.389Z,4.97
2022-10-21T02:49:04.314Z,5.57
2022-10-21T02:51:34.209Z,5.37
2022-10-21T02:54:02.144Z,5.60
2022-10-21T02:58:58.428Z,5.27
2022-10-21T03:01:26.920Z,5.40
2022-10-21T03:03:55.203Z,5.60
2022-10-21T03:06:23.158Z,5.20
2022-10-21T03:08:52.608Z,5.80
2022-10-21T03:11:20.547Z,5.20
2022-10-21T03:13:49.115Z,5.33
2022-10-21T03:18:45.568Z,5.53
2022-10-21T03:21:13.461Z,5.10
2022-10-21T03:23:41.533Z,5.27
2022-10-21T03:26:10.940Z,5.17
2022-10-21T03:28:39.523Z,5.47
2022-10-21T03:31:07.282Z,5.47
2022-10-21T03:33:35.061Z,4.90
2022-10-21T03:36:02.823Z,5.10
2022-10-21T03:38:30.595Z,4.90
2022-10-21T03:40:58.333Z,4.70
2022-10-21T03:43:27.847Z,5.00
2022-10-21T03:45:55.586Z,4.80
2022-10-21T03:48:23.801Z,4.90
2022-10-21T03:50:51.588Z,4.77
2022-10-21T03:53:38.123Z,4.90
2022-10-21T03:56:08.544Z,5.00
2022-10-21T03:58:37.889Z,4.13
2022-10-21T04:01:05.782Z,4.67
2022-10-21T04:03:33.772Z,5.00
2022-10-21T04:06:01.747Z,5.23
2022-10-21T04:08:29.909Z,4.83
2022-10-21T04:10:58.620Z,4.77
2022-10-21T04:13:26.897Z,4.73
2022-10-21T04:15:59.611Z,4.83
2022-10-21T04:18:27.775Z,4.90
2022-10-21T04:20:55.548Z,4.37
2022-10-21T04:23:23.849Z,5.20
2022-10-21T04:25:51.837Z,4.83
2022-10-21T04:28:20.474Z,4.90
2022-10-21T04:30:48.387Z,4.33
2022-10-21T04:33:18.293Z,4.63
2022-10-21T04:35:46.060Z,5.23
2022-10-21T04:38:14.334Z,4.57
2022-10-21T04:40:42.371Z,4.40
2022-10-21T04:43:10.311Z,5.33
2022-10-21T04:45:40.290Z,4.77
2022-10-21T04:48:08.348Z,4.50
2022-10-21T04:50:37.885Z,4.90
2022-10-21T04:53:05.937Z,4.80
2022-10-21T04:55:33.964Z,4.40
2022-10-21T04:58:01.932Z,4.10
2022-10-21T05:00:30.244Z,4.30
2022-10-21T05:02:58.487Z,4.37
2022-10-21T05:05:27.070Z,4.63
2022-10-21T05:07:56.437Z,4.80
2022-10-21T05:10:26.001Z,4.33
2022-10-21T05:12:54.026Z,4.80
2022-10-21T05:15:22.257Z,4.67
2022-10-21T05:17:49.977Z,4.50
2022-10-21T05:20:18.304Z,4.63
2022-10-21T05:22:46.372Z,4.63
2022-10-21T05:25:16.237Z,4.23
2022-10-21T05:27:43.968Z,4.27
2022-10-21T05:30:12.742Z,4.10
2022-10-21T05:32:40.950Z,4.10
2022-10-21T05:35:09.665Z,4.20
2022-10-21T05:37:37.457Z,4.47
2022-10-21T05:40:06.691Z,4.17
2022-10-21T05:42:35.893Z,4.43
2022-10-21T05:45:04.252Z,4.20
2022-10-21T05:47:31.998Z,4.30
2022-10-21T05:50:00.117Z,4.50
2022-10-21T05:52:27.884Z,4.20
2022-10-21T05:54:56.036Z,4.47
2022-10-21T05:57:23.820Z,3.87
2022-10-21T05:59:53.387Z,4.20
2022-10-21T06:02:21.190Z,3.90
2022-10-21T06:04:48.956Z,4.43
2022-10-21T06:07:16.717Z,4.90
2022-10-21T06:09:45.029Z,4.50
2022-10-21T06:12:13.360Z,4.63
2022-10-21T06:14:41.302Z,4.47
2022-10-21T06:17:10.724Z,3.97
2022-10-21T06:19:38.559Z,4.60
2022-10-21T06:22:06.662Z,4.07
2022-10-21T06:24:34.609Z,4.10
2022-10-21T06:27:02.882Z,3.87
2022-10-21T06:29:30.924Z,3.80
2022-10-21T06:31:59.434Z,4.40
2022-10-21T06:34:28.895Z,3.87
2022-10-21T06:36:57.224Z,4.97
2022-10-21T06:39:25.266Z,4.20
2022-10-21T06:41:53.627Z,3.87
2022-10-21T06:44:21.659Z,4.10
2022-10-21T06:46:49.979Z,4.43
2022-10-21T06:49:17.935Z,4.40
2022-10-21T06:51:47.232Z,4.20
2022-10-21T06:54:15.192Z,4.60
2022-10-21T06:56:43.633Z,3.87
2022-10-21T06:59:11.627Z,4.47
2022-10-21T07:01:59.055Z,12.70
2022-10-21T07:04:27.734Z,13.23
2022-10-21T07:06:57.445Z,17.87
2022-10-21T07:09:25.536Z,16.37
2022-10-21T07:11:54.033Z,16.43
2022-10-21T07:14:22.101Z,15.97
2022-10-21T07:16:51.575Z,18.10
2022-10-21T07:19:19.448Z,15.27
2022-10-21T07:21:47.247Z,13.70
2022-10-21T07:24:18.806Z,13.30
2022-10-21T07:26:50.020Z,12.17
2022-10-21T07:29:17.913Z,11.23
2022-10-21T07:31:45.937Z,10.97
2022-10-21T07:34:13.933Z,10.83
2022-10-21T07:36:48.365Z,10.20
2022-10-21T07:39:18.398Z,9.80
2022-10-21T07:41:47.792Z,10.77
2022-10-21T07:44:15.995Z,9.10
2022-10-21T07:46:44.225Z,9.87
2022-10-21T07:49:12.376Z,9.33
2022-10-21T07:51:40.188Z,9.50
2022-10-21T07:54:08.254Z,9.13
2022-10-21T07:56:38.517Z,10.47
2022-10-21T07:59:11.625Z,10.07
2022-10-21T08:01:41.562Z,8.80
2022-10-21T08:04:10.561Z,9.87
2022-10-21T08:06:38.636Z,9.20
2022-10-21T08:09:07.311Z,9.10
2022-10-21T08:11:35.446Z,10.00
2022-10-21T08:14:07.301Z,9.33
2022-10-21T08:16:35.526Z,9.43
2022-10-21T08:19:04.005Z,9.60
2022-10-21T08:21:32.041Z,9.00
2022-10-21T08:23:59.980Z,8.73
2022-10-21T08:26:27.953Z,8.70
2022-10-21T08:28:55.851Z,8.40
2022-10-21T08:31:28.570Z,8.43
2022-10-21T08:33:56.748Z,8.27
2022-10-21T08:36:26.356Z,8.60
2022-10-21T08:38:54.720Z,8.90
2022-10-21T08:41:45.109Z,8.73
2022-10-21T08:44:15.866Z,8.33
2022-10-21T08:46:47.833Z,8.27
2022-10-21T08:49:23.126Z,8.07
2022-10-21T08:51:55.287Z,7.90
2022-10-21T08:54:25.623Z,8.30
2022-10-21T08:56:53.742Z,8.43
2022-10-21T08:59:23.759Z,8.20
2022-10-21T09:01:55.924Z,8.00
2022-10-21T09:04:29.093Z,7.40
2022-10-21T09:06:58.890Z,7.63
2022-10-21T09:09:28.321Z,7.63
2022-10-21T09:12:01.665Z,8.07
2022-10-21T09:14:51.324Z,7.40
2022-10-21T09:17:44.512Z,8.00
2022-10-21T09:20:18.580Z,7.70
2022-10-21T09:22:52.345Z,8.10
2022-10-21T09:25:22.529Z,7.23
2022-10-21T09:27:56.500Z,7.13
2022-10-21T09:30:25.230Z,6.93
2022-10-21T09:32:57.576Z,7.40
2022-10-21T09:35:29.587Z,7.13
2022-10-21T09:37:58.616Z,7.20
2022-10-21T09:40:28.416Z,6.90
2022-10-21T09:42:59.234Z,7.07
2022-10-21T09:45:31.621Z,6.90
2022-10-21T09:48:01.690Z,7.20
2022-10-21T09:50:32.926Z,5.90
2022-10-21T09:53:07.648Z,6.10
2022-10-21T09:55:35.601Z,6.00
2022-10-21T09:58:04.179Z,5.30
2022-10-21T10:00:46.817Z,5.60
2022-10-21T10:03:30.667Z,5.40
2022-10-21T10:05:58.652Z,5.40
2022-10-21T10:08:30.879Z,5.50
2022-10-21T10:11:06.512Z,5.40
2022-10-21T10:13:34.579Z,5.30
2022-10-21T10:16:24.230Z,5.00
2022-10-21T10:18:54.936Z,5.40
2022-10-21T10:21:23.261Z,5.00
2022-10-21T10:23:54.478Z,4.77
2022-10-21T10:26:24.861Z,4.70
2022-10-21T10:28:54.984Z,4.80
2022-10-21T10:31:31.625Z,5.60
2022-10-21T10:34:03.609Z,5.37
2022-10-21T10:36:33.616Z,5.10
2022-10-21T10:39:01.857Z,5.60
2022-10-21T10:41:35.912Z,4.90
2022-10-21T10:44:08.834Z,4.80
2022-10-21T10:46:37.438Z,4.30
2022-10-21T10:49:21.266Z,4.00
2022-10-21T10:51:50.023Z,4.40
2022-10-21T10:54:19.428Z,4.43
2022-10-21T10:56:50.651Z,4.77
2022-10-21T10:59:22.253Z,4.53
2022-10-21T11:01:52.738Z,4.80
2022-10-21T11:04:24.610Z,4.17
2022-10-21T11:06:58.316Z,4.67
2022-10-21T11:09:27.508Z,4.23
2022-10-21T11:11:56.712Z,3.87
2022-10-21T11:14:24.503Z,4.20
2022-10-21T11:17:01.338Z,3.90
2022-10-21T11:19:38.979Z,4.43
2022-10-21T11:22:13.262Z,3.90
2022-10-21T11:25:02.433Z,3.93
2022-10-21T11:27:42.547Z,4.07
2022-10-21T11:30:12.755Z,3.80
2022-10-21T11:32:48.754Z,4.03
2022-10-21T11:35:26.720Z,3.57
2022-10-21T11:38:00.251Z,4.07
2022-10-21T11:40:32.950Z,3.80
2022-10-21T11:43:04.332Z,3.77
2022-10-21T11:45:37.622Z,3.80
2022-10-21T11:48:13.148Z,4.00
2022-10-21T11:50:45.675Z,3.67
2022-10-21T11:53:22.430Z,3.83
2022-10-21T11:55:54.260Z,3.97
2022-10-21T11:58:29.595Z,3.80
2022-10-21T12:01:04.300Z,4.00
2022-10-21T12:03:48.734Z,3.80
2022-10-21T12:06:23.681Z,3.63
2022-10-21T12:08:53.514Z,3.67
2022-10-21T12:11:23.291Z,3.50
2022-10-21T12:13:52.458Z,3.70
2022-10-21T12:16:21.294Z,3.23
2022-10-21T12:18:51.263Z,3.60
2022-10-21T12:21:22.787Z,3.60
2022-10-21T12:23:53.212Z,3.93
2022-10-21T12:26:22.516Z,3.83
2022-10-21T12:28:52.575Z,4.10
2022-10-21T12:31:29.273Z,3.80
2022-10-21T12:33:57.204Z,3.70
2022-10-21T12:36:45.993Z,3.83
2022-10-21T12:39:48.844Z,4.13
2022-10-21T12:42:18.550Z,4.03
2022-10-21T12:44:46.722Z,4.30
2022-10-21T12:47:25.737Z,4.40
2022-10-21T12:50:07.910Z,4.20
2022-10-21T12:52:38.922Z,5.03
2022-10-21T12:55:08.651Z,4.67
2022-10-21T12:57:37.412Z,4.80
2022-10-21T13:00:44.163Z,4.70
2022-10-21T13:03:12.284Z,4.90
2022-10-21T13:05:58.817Z,5.40
2022-10-21T13:08:28.356Z,5.47
2022-10-21T13:11:14.155Z,5.23
2022-10-21T13:13:42.193Z,5.73
2022-10-21T13:16:30.031Z,5.53
2022-10-21T13:19:00.019Z,6.67
2022-10-21T13:21:34.485Z,6.30
2022-10-21T13:24:14.983Z,7.17
2022-10-21T13:26:43.526Z,6.90
2022-10-21T13:29:34.096Z,7.13
2022-10-21T13:32:32.460Z,7.30
2022-10-21T13:35:02.898Z,7.17
2022-10-21T13:37:32.591Z,8.00
2022-10-21T13:40:03.372Z,7.20
2022-10-21T13:42:34.456Z,7.90
2022-10-21T13:45:04.558Z,7.00
2022-10-21T13:47:33.449Z,6.97
2022-10-21T13:50:06.731Z,7.43
2022-10-21T13:52:34.467Z,6.70
2022-10-21T13:55:04.721Z,6.30
2022-10-21T13:57:33.597Z,5.57
2022-10-21T14:00:02.446Z,5.90
2022-10-21T14:02:30.686Z,5.57
2022-10-21T14:04:58.458Z,5.80
2022-10-21T14:07:26.262Z,5.40
2022-10-21T14:09:55.551Z,4.63
2022-10-21T14:12:26.097Z,5.43
2022-10-21T14:14:54.231Z,5.07
2022-10-21T14:17:23.965Z,5.43
2022-10-21T14:19:53.150Z,5.13
2022-10-21T14:22:22.213Z,4.97
2022-10-21T14:24:53.841Z,5.50
2022-10-21T14:27:23.678Z,5.03
2022-10-21T14:29:53.180Z,5.43
2022-10-21T14:32:22.191Z,5.93
2022-10-21T14:35:00.911Z,5.23
2022-10-21T14:37:28.815Z,4.90
2022-10-21T14:40:10.555Z,4.90
2022-10-21T14:42:38.685Z,5.23
2022-10-21T14:45:16.647Z,5.43
2022-10-21T14:47:49.663Z,5.60
2022-10-21T14:50:19.848Z,5.13
2022-10-21T14:52:48.002Z,5.50
2022-10-21T14:55:17.361Z,5.03
2022-10-21T14:57:47.529Z,5.10
2022-10-21T15:00:29.091Z,4.90
2022-10-21T15:02:58.697Z,5.53
2022-10-21T15:05:36.079Z,5.10
2022-10-21T15:08:28.861Z,5.77
2022-10-21T15:11:23.728Z,6.73
2022-10-21T15:14:25.673Z,5.07
2022-10-21T15:16:56.085Z,5.27
2022-10-21T15:19:25.561Z,5.53
2022-10-21T15:21:55.265Z,5.50
2022-10-21T15:24:24.737Z,5.73
2022-10-21T15:26:53.330Z,6.00
2022-10-21T15:29:27.348Z,5.77
2022-10-21T15:31:57.999Z,5.70
2022-10-21T15:34:26.123Z,6.20
2022-10-21T15:36:54.489Z,5.80
2022-10-21T15:39:22.459Z,5.93
2022-10-21T15:41:53.734Z,5.70
2022-10-21T15:44:23.047Z,6.30
2022-10-21T15:46:57.945Z,5.60
2022-10-21T15:49:27.949Z,5.57
2022-10-21T15:51:55.713Z,5.47
2022-10-21T15:54:23.576Z,5.43
2022-10-21T15:56:52.440Z,5.50
2022-10-21T15:59:21.990Z,5.07
2022-10-21T16:01:50.223Z,5.63
2022-10-21T16:04:18.533Z,5.33
2022-10-21T16:06:48.938Z,5.40
2022-10-21T16:09:19.804Z,5.10
2022-10-21T16:11:58.952Z,5.50
2022-10-21T16:14:29.507Z,5.33
2022-10-21T16:16:58.446Z,5.30
2022-10-21T16:19:27.046Z,4.80
2022-10-21T16:21:56.831Z,4.93
2022-10-21T16:24:25.256Z,4.30
2022-10-21T16:26:53.179Z,5.47
2022-10-21T16:29:22.116Z,4.70
2022-10-21T16:31:50.128Z,5.00
2022-10-21T16:34:18.293Z,4.80
2022-10-21T16:36:46.109Z,4.87
2022-10-21T16:39:16.092Z,4.70
2022-10-21T16:41:44.077Z,4.47
2022-10-21T16:44:12.272Z,4.90
2022-10-21T16:46:41.603Z,5.30
2022-10-21T16:49:13.129Z,4.60
2022-10-21T16:51:41.491Z,4.70
2022-10-21T16:54:09.508Z,5.00
2022-10-21T16:56:39.110Z,5.17
2022-10-21T16:59:07.825Z,4.97
2022-10-21T17:01:35.738Z,4.97
2022-10-21T17:04:03.827Z,5.43
2022-10-21T17:06:31.907Z,4.23
2022-10-21T17:09:00.035Z,4.80
2022-10-21T17:11:31.950Z,4.53
2022-10-21T17:14:01.422Z,5.03
2022-10-21T17:16:29.715Z,5.00
2022-10-21T17:18:57.489Z,4.63
2022-10-21T17:21:26.648Z,4.80
2022-10-21T17:23:54.461Z,4.43
2022-10-21T17:26:22.281Z,4.63
2022-10-21T17:28:50.529Z,5.10
2022-10-21T17:31:21.343Z,4.40
2022-10-21T17:33:49.455Z,5.17
2022-10-21T17:36:17.700Z,4.47
2022-10-21T17:38:45.686Z,4.53
2022-10-21T17:41:14.560Z,4.53
2022-10-21T17:43:42.669Z,4.30
2022-10-21T17:46:11.369Z,5.00
2022-10-21T17:48:40.704Z,4.70
2022-10-21T17:51:09.349Z,4.53
2022-10-21T17:53:37.353Z,4.57
2022-10-21T17:56:07.344Z,4.50
2022-10-21T17:58:35.458Z,4.77
2022-10-21T18:01:07.663Z,5.40
2022-10-21T18:03:35.966Z,4.90
2022-10-21T18:06:07.469Z,4.70
2022-10-21T18:08:35.464Z,4.90
2022-10-21T18:11:03.415Z,4.90
2022-10-21T18:13:31.588Z,4.77
2022-10-21T18:16:03.312Z,4.83
2022-10-21T18:18:31.223Z,4.57
2022-10-21T18:21:02.179Z,5.70
2022-10-21T18:23:31.285Z,5.17
2022-10-21T18:26:03.754Z,4.27
2022-10-21T18:28:32.340Z,4.70
2022-10-21T18:31:00.303Z,4.40
2022-10-21T18:33:28.423Z,4.60
2022-10-21T18:35:57.035Z,4.93
2022-10-21T18:38:25.029Z,4.67
2022-10-21T18:41:02.148Z,4.70
2022-10-21T18:43:36.913Z,4.50
2022-10-21T18:46:04.915Z,4.70
2022-10-21T18:48:32.696Z,5.17
2022-10-21T18:51:06.187Z,4.93
2022-10-21T18:53:35.710Z,4.40
2022-10-21T18:56:09.078Z,5.27
2022-10-21T18:58:38.015Z,5.10
2022-10-21T19:01:06.277Z,5.43
2022-10-21T19:03:34.958Z,5.10
2022-10-21T19:06:16.245Z,4.70
2022-10-21T19:08:44.372Z,5.33
2022-10-21T19:11:13.918Z,5.50
2022-10-21T19:13:41.926Z,5.90
2022-10-21T19:16:11.164Z,7.07
2022-10-21T19:18:39.167Z,7.03
2022-10-21T19:21:07.769Z,6.57
2022-10-21T19:23:36.047Z,7.27
2022-10-21T19:26:04.182Z,6.40
2022-10-21T19:28:35.984Z,6.57
2022-10-21T19:31:03.906Z,6.60
2022-10-21T19:33:32.609Z,6.43
2022-10-21T19:36:00.883Z,5.80
2022-10-21T19:38:44.897Z,6.47
2022-10-21T19:41:14.329Z,6.13
2022-10-21T19:43:44.177Z,7.70
2022-10-21T19:46:12.848Z,7.67
2022-10-21T19:48:41.152Z,8.03
2022-10-21T19:51:15.120Z,8.03
2022-10-21T19:53:45.090Z,9.50
2022-10-21T19:56:13.163Z,7.83
2022-10-21T19:58:41.249Z,8.23
2022-10-21T20:01:11.927Z,7.27
2022-10-21T20:03:40.929Z,8.03
2022-10-21T20:06:09.167Z,8.00
2022-10-21T20:08:38.590Z,8.80
2022-10-21T20:11:08.392Z,8.63
2022-10-21T20:13:36.250Z,10.20
2022-10-21T20:16:04.605Z,10.33
2022-10-21T20:18:34.077Z,9.50
2022-10-21T20:21:02.783Z,8.93
2022-10-21T20:23:30.814Z,10.40
2022-10-21T20:25:59.110Z,11.30
2022-10-21T20:28:27.073Z,12.70
2022-10-21T20:30:58.527Z,11.80
2022-10-21T20:33:26.478Z,11.17
2022-10-21T20:35:55.973Z,11.73
2022-10-21T20:38:23.831Z,12.03
2022-10-21T20:40:54.882Z,12.30
2022-10-21T20:43:22.633Z,12.77
2022-10-21T20:45:50.475Z,12.43
2022-10-21T20:48:18.268Z,11.97
2022-10-21T20:50:46.096Z,12.27
2022-10-21T20:53:15.482Z,12.67
2022-10-21T20:55:45.528Z,12.23
2022-10-21T20:58:13.933Z,14.57
2022-10-21T21:00:44.870Z,13.60
2022-10-21T21:03:14.727Z,14.07
2022-10-21T21:05:43.082Z,14.33
2022-10-21T21:08:11.140Z,12.40
2022-10-21T21:10:40.604Z,12.90
2022-10-21T21:13:08.715Z,13.40
2022-10-21T21:15:36.881Z,13.30
2022-10-21T21:18:11.592Z,14.60
2022-10-21T21:20:39.536Z,14.53
2022-10-21T21:23:07.313Z,13.10
2022-10-21T21:25:35.122Z,13.37
2022-10-21T21:28:04.215Z,13.67
2022-10-21T21:30:32.390Z,14.37
2022-10-21T21:33:00.119Z,16.13
2022-10-21T21:35:27.917Z,14.97
2022-10-21T21:37:55.836Z,15.37
2022-10-21T21:40:23.863Z,14.30
2022-10-21T21:42:51.724Z,14.23
2022-10-21T21:45:21.174Z,15.50
2022-10-21T21:47:49.319Z,16.03
2022-10-21T21:50:17.790Z,17.10
2022-10-21T21:52:46.337Z,15.83
2022-10-21T21:55:15.169Z,15.27
2022-10-21T21:57:43.307Z,16.13
2022-10-21T22:00:13.179Z,17.27
2022-10-21T22:02:42.956Z,16.80
2022-10-21T22:05:11.874Z,15.57
2022-10-21T22:07:40.197Z,15.13
2022-10-21T22:10:08.848Z,15.23
2022-10-21T22:12:36.886Z,16.30
2022-10-21T22:15:05.529Z,15.50
2022-10-21T22:17:33.530Z,15.00
2022-10-21T22:20:03.142Z,15.30
2022-10-21T22:22:31.066Z,14.10
2022-10-21T22:24:59.204Z,14.80
2022-10-21T22:27:27.112Z,13.80
2022-10-21T22:29:55.047Z,14.10
2022-10-21T22:32:23.087Z,13.57
2022-10-21T22:34:51.112Z,13.30
2022-10-21T22:37:20.589Z,13.07
2022-10-21T22:39:48.376Z,14.17
2022-10-21T22:42:16.180Z,13.73
2022-10-21T22:44:43.915Z,13.07
2022-10-21T22:47:11.684Z,11.87
2022-10-21T22:49:39.443Z,12.23
2022-10-21T22:52:07.327Z,11.67
2022-10-21T22:54:49.211Z,11.93
2022-10-21T22:57:17.954Z,12.00
2022-10-21T22:59:50.646Z,11.07
2022-10-21T23:02:21.589Z,11.67
2022-10-21T23:04:49.633Z,11.37
2022-10-21T23:07:17.616Z,10.93
2022-10-21T23:09:46.990Z,11.50
2022-10-21T23:12:15.498Z,11.07
2022-10-21T23:14:43.444Z,10.87
2022-10-21T23:17:11.772Z,9.87
2022-10-21T23:19:39.804Z,11.27
2022-10-21T23:22:07.878Z,10.30
2022-10-21T23:24:36.385Z,10.50
2022-10-21T23:27:06.209Z,9.97
2022-10-21T23:29:34.179Z,10.03
2022-10-21T23:32:02.330Z,9.77
2022-10-21T23:34:30.393Z,9.70
2022-10-21T23:36:58.394Z,9.70
2022-10-21T23:39:26.430Z,9.03
2022-10-21T23:41:54.690Z,9.03
2022-10-21T23:44:24.665Z,9.60
2022-10-21T23:46:52.596Z,9.30
2022-10-21T23:49:20.843Z,8.73
2022-10-21T23:51:48.882Z,8.43
2022-10-21T23:54:25.522Z,9.00
2022-10-21T23:56:53.439Z,9.10
2022-10-21T23:59:22.150Z,8.67
